createdAt,value
2023-04-22T00:01:09.101Z,99263.59
2023-04-22T00:03:42.790Z,99265.56
2023-04-22T00:06:15.143Z,99265.81
2023-04-22T00:08:47.494Z,99263.27
2023-04-22T00:11:19.630Z,99274.05
2023-04-22T00:13:51.848Z,99267.20
2023-04-22T00:16:24.017Z,99276.18
2023-04-22T00:18:56.295Z,99277.86
2023-04-22T00:21:28.737Z,99275.32
2023-04-22T00:24:00.800Z,99280.56
2023-04-22T00:26:33.103Z,99280.56
2023-04-22T00:29:05.600Z,99280.56
2023-04-22T00:31:38.578Z,99283.27
2023-04-22T00:34:10.861Z,99286.17
2023-04-22T00:36:43.320Z,99280.08
2023-04-22T00:39:16.778Z,99280.23
2023-04-22T00:41:49.047Z,99283.14
2023-04-22T00:44:21.644Z,99275.53
2023-04-22T00:46:54.484Z,99280.94
2023-04-22T00:49:28.512Z,99285.34
2023-04-22T00:52:00.669Z,99281.30
2023-04-22T00:54:33.140Z,99286.70
2023-04-22T00:57:07.209Z,99286.86
2023-04-22T00:59:39.740Z,99279.20
2023-04-22T01:02:12.967Z,99283.73
2023-04-22T01:04:45.957Z,99281.23
2023-04-22T01:07:18.760Z,99282.22
2023-04-22T01:09:51.227Z,99281.56
2023-04-22T01:12:23.381Z,99273.12
2023-04-22T01:14:55.965Z,99276.76
2023-04-22T01:17:28.313Z,99272.62
2023-04-22T01:20:00.819Z,99279.77
2023-04-22T01:22:36.916Z,99279.11
2023-04-22T01:25:10.483Z,99273.88
2023-04-22T01:27:43.145Z,99271.61
2023-04-22T01:30:15.506Z,99274.30
2023-04-22T01:32:48.095Z,99264.07
2023-04-22T01:35:20.332Z,99270.31
2023-04-22T01:37:53.214Z,99267.11
2023-04-22T01:40:27.601Z,99264.58
2023-04-22T01:43:00.946Z,99268.95
2023-04-22T01:45:33.778Z,99270.82
2023-04-22T01:48:07.119Z,99270.82
2023-04-22T01:50:39.775Z,99241.17
2023-04-22T01:53:12.329Z,99241.17
2023-04-22T01:55:45.448Z,99264.30
2023-04-22T01:58:18.516Z,99264.38
2023-04-22T02:00:50.778Z,99268.86
2023-04-22T02:03:23.204Z,99273.31
2023-04-22T02:05:55.310Z,99266.33
2023-04-22T02:08:27.520Z,99272.49
2023-04-22T02:11:01.237Z,99269.95
2023-04-22T02:13:38.436Z,99269.17
2023-04-22T02:16:12.880Z,99273.73
2023-04-22T02:18:46.692Z,99266.89
2023-04-22T02:21:19.082Z,99272.98
2023-04-22T02:23:51.122Z,99273.89
2023-04-22T02:26:23.882Z,99272.28
2023-04-22T02:28:56.094Z,99267.05
2023-04-22T02:31:30.612Z,99268.58
2023-04-22T02:34:02.992Z,99265.81
2023-04-22T02:36:35.323Z,99270.81
2023-04-22T02:39:07.351Z,99275.85
2023-04-22T02:41:40.515Z,99279.33
2023-04-22T02:44:13.186Z,99273.83
2023-04-22T02:46:45.412Z,99277.07
2023-04-22T02:49:17.890Z,99274.11
2023-04-22T02:51:50.144Z,99272.78
2023-04-22T02:54:23.512Z,99274.11
2023-04-22T02:56:55.667Z,99280.80
2023-04-22T02:59:27.988Z,99279.61
2023-04-22T03:02:00.649Z,99280.97
2023-04-22T03:04:34.496Z,99285.70
2023-04-22T03:07:06.604Z,99281.21
2023-04-22T03:09:39.507Z,99278.56
2023-04-22T03:12:12.097Z,99278.11
2023-04-22T03:14:44.365Z,99283.95
2023-04-22T03:17:16.899Z,99282.08
2023-04-22T03:19:49.404Z,99286.30
2023-04-22T03:22:22.005Z,99281.05
2023-04-22T03:24:56.176Z,99280.03
2023-04-22T03:27:28.402Z,99287.56
2023-04-22T03:30:00.646Z,99294.31
2023-04-22T03:32:35.114Z,99280.09
2023-04-22T03:35:09.289Z,99283.20
2023-04-22T03:37:41.754Z,99289.78
2023-04-22T03:40:15.659Z,99283.42
2023-04-22T03:42:47.700Z,99296.16
2023-04-22T03:45:21.726Z,99289.66
2023-04-22T03:47:58.917Z,99292.67
2023-04-22T03:50:32.715Z,99293.97
2023-04-22T03:53:05.191Z,99297.92
2023-04-22T03:55:37.495Z,99293.23
2023-04-22T03:58:10.940Z,99295.41
2023-04-22T04:00:43.809Z,99304.58
2023-04-22T04:03:17.805Z,99297.00
2023-04-22T04:05:51.860Z,99294.02
2023-04-22T04:08:25.382Z,99300.45
2023-04-22T04:10:57.979Z,99305.98
2023-04-22T04:13:32.530Z,99308.22
2023-04-22T04:16:23.494Z,99310.39
2023-04-22T04:18:57.280Z,99304.55
2023-04-22T04:21:31.986Z,99306.69
2023-04-22T04:24:05.340Z,99309.89
2023-04-22T04:26:39.392Z,99312.11
2023-04-22T04:29:24.165Z,99317.81
2023-04-22T04:32:00.976Z,99313.01
2023-04-22T04:34:34.500Z,99310.83
2023-04-22T04:37:07.186Z,99292.04
2023-04-22T04:39:44.691Z,99286.12
2023-04-22T04:42:17.512Z,99309.69
2023-04-22T04:44:51.826Z,99303.19
2023-04-22T04:47:25.102Z,99302.34
2023-04-22T04:49:59.449Z,99303.44
2023-04-22T04:52:33.089Z,99306.21
2023-04-22T04:55:06.436Z,99303.91
2023-04-22T04:57:39.133Z,99308.02
2023-04-22T05:00:11.460Z,99306.64
2023-04-22T05:02:44.531Z,99307.06
2023-04-22T05:05:18.044Z,99313.30
2023-04-22T05:07:51.979Z,99314.45
2023-04-22T05:10:25.598Z,99311.52
2023-04-22T05:12:58.360Z,99313.70
2023-04-22T05:15:31.103Z,99308.03
2023-04-22T05:18:03.272Z,99313.61
2023-04-22T05:20:36.670Z,99312.97
2023-04-22T05:23:09.225Z,99324.77
2023-04-22T05:25:41.718Z,99326.89
2023-04-22T05:28:15.431Z,99322.87
2023-04-22T05:30:52.913Z,99323.91
2023-04-22T05:33:25.025Z,99318.82
2023-04-22T05:35:57.660Z,99326.06
2023-04-22T05:38:30.890Z,99320.02
2023-04-22T05:41:03.345Z,99327.36
2023-04-22T05:43:35.859Z,99319.23
2023-04-22T05:46:09.911Z,99321.44
2023-04-22T05:48:43.815Z,99321.59
2023-04-22T05:51:17.063Z,99314.69
2023-04-22T05:53:48.771Z,99314.55
2023-04-22T05:56:22.446Z,99310.34
2023-04-22T05:58:55.074Z,99317.57
2023-04-22T06:01:29.079Z,99319.70
2023-04-22T06:04:05.781Z,99315.09
2023-04-22T06:06:38.845Z,99321.19
2023-04-22T06:09:11.009Z,99322.28
2023-04-22T06:11:44.962Z,99311.14
2023-04-22T06:14:17.341Z,99316.52
2023-04-22T06:16:50.934Z,99316.38
2023-04-22T06:19:22.902Z,99312.48
2023-04-22T06:21:55.033Z,99312.48
2023-04-22T06:24:28.162Z,99299.91
2023-04-22T06:27:00.284Z,99313.17
2023-04-22T06:29:33.592Z,99314.03
2023-04-22T06:32:06.083Z,99296.59
2023-04-22T06:34:38.959Z,99303.76
2023-04-22T06:37:11.236Z,99297.14
2023-04-22T06:39:44.528Z,99292.23
2023-04-22T06:42:34.748Z,99283.05
2023-04-22T06:45:26.741Z,99289.05
2023-04-22T06:48:00.318Z,99287.05
2023-04-22T06:50:34.103Z,99292.63
2023-04-22T06:53:06.767Z,99288.33
2023-04-22T06:55:39.986Z,99270.91
2023-04-22T06:58:12.434Z,99267.88
2023-04-22T07:00:44.770Z,99268.47
2023-04-22T07:03:18.284Z,99266.81
2023-04-22T07:05:52.404Z,99272.58
2023-04-22T07:08:24.856Z,99275.39
2023-04-22T07:10:58.136Z,99285.33
2023-04-22T07:13:41.418Z,99283.54
2023-04-22T07:16:14.003Z,99280.12
2023-04-22T07:18:46.173Z,99289.66
2023-04-22T07:21:18.244Z,99291.58
2023-04-22T07:23:50.381Z,99291.02
2023-04-22T07:26:23.006Z,99286.19
2023-04-22T07:28:55.636Z,99288.89
2023-04-22T07:31:27.845Z,99292.47
2023-04-22T07:34:01.324Z,99291.33
2023-04-22T07:36:33.309Z,99302.88
2023-04-22T07:39:06.021Z,99299.23
2023-04-22T07:41:39.666Z,99295.05
2023-04-22T07:44:13.529Z,99291.45
2023-04-22T07:46:46.228Z,99295.24
2023-04-22T07:49:20.089Z,99295.80
2023-04-22T07:51:52.808Z,99298.02
2023-04-22T07:54:25.678Z,99301.81
2023-04-22T07:56:58.614Z,99301.69
2023-04-22T07:59:31.857Z,99307.81
2023-04-22T08:02:04.463Z,99304.25
2023-04-22T08:04:37.581Z,99302.81
2023-04-22T08:07:29.696Z,99307.27
2023-04-22T08:09:44.831Z,99301.92
2023-04-22T08:12:17.169Z,99318.33
2023-04-22T08:14:49.548Z,99291.44
2023-04-22T08:17:23.358Z,99295.13
2023-04-22T08:19:56.242Z,99296.59
2023-04-22T08:22:28.915Z,99287.98
2023-04-22T08:25:02.031Z,99288.68
2023-04-22T08:27:34.652Z,99290.23
2023-04-22T08:30:08.404Z,99287.98
2023-04-22T08:32:40.685Z,99280.28
2023-04-22T08:35:13.234Z,99279.87
2023-04-22T08:37:45.455Z,99287.31
2023-04-22T08:40:18.704Z,99298.02
2023-04-22T08:42:52.559Z,99294.67
2023-04-22T08:45:25.224Z,99293.36
2023-04-22T08:47:58.381Z,99302.54
2023-04-22T08:50:33.092Z,99294.84
2023-04-22T08:53:05.428Z,99296.56
2023-04-22T08:55:38.129Z,99300.56
2023-04-22T08:58:12.091Z,99294.52
2023-04-22T09:00:47.225Z,99291.48
2023-04-22T09:03:20.774Z,99298.59
2023-04-22T09:05:54.547Z,99301.09
2023-04-22T09:08:27.757Z,99294.83
2023-04-22T09:11:00.742Z,99287.00
2023-04-22T09:13:34.368Z,99299.43
2023-04-22T09:16:07.595Z,99298.45
2023-04-22T09:18:46.071Z,99296.80
2023-04-22T09:21:18.440Z,99284.06
2023-04-22T09:23:52.877Z,99280.67
2023-04-22T09:26:26.137Z,99274.33
2023-04-22T09:29:01.003Z,99277.91
2023-04-22T09:31:34.872Z,99269.17
2023-04-22T09:34:07.802Z,99274.22
2023-04-22T09:36:40.843Z,99276.28
2023-04-22T09:39:13.504Z,99273.47
2023-04-22T09:41:46.224Z,99278.31
2023-04-22T09:44:19.280Z,99271.15
2023-04-22T09:46:51.711Z,99280.98
2023-04-22T09:49:25.451Z,99280.89
2023-04-22T09:51:58.984Z,99283.14
2023-04-22T09:54:31.668Z,99279.25
2023-04-22T09:57:06.057Z,99285.13
2023-04-22T09:59:39.135Z,99285.10
2023-04-22T10:02:11.666Z,99288.95
2023-04-22T10:04:44.251Z,99286.58
2023-04-22T10:07:18.022Z,99291.47
2023-04-22T10:09:50.880Z,99288.11
2023-04-22T10:12:32.971Z,99282.53
2023-04-22T10:14:57.366Z,99283.23
2023-04-22T10:17:35.538Z,99266.98
2023-04-22T10:20:12.826Z,99267.64
2023-04-22T10:22:45.703Z,99264.39
2023-04-22T10:25:28.874Z,99254.61
2023-04-22T10:28:12.225Z,99247.48
2023-04-22T10:30:44.542Z,99248.75
2023-04-22T10:33:26.614Z,99261.80
2023-04-22T10:36:14.242Z,99247.75
2023-04-22T10:38:58.521Z,99259.47
2023-04-22T10:41:36.313Z,99259.27
2023-04-22T10:44:10.002Z,99267.88
2023-04-22T10:46:54.768Z,99257.45
2023-04-22T10:49:29.720Z,99265.26
2023-04-22T10:52:04.247Z,99267.13
2023-04-22T10:54:47.592Z,99269.64
2023-04-22T10:57:24.500Z,99260.48
2023-04-22T11:00:01.990Z,99272.14
2023-04-22T11:02:38.534Z,99256.75
2023-04-22T11:05:25.837Z,99273.11
2023-04-22T11:07:59.724Z,99264.33
2023-04-22T11:10:44.679Z,99258.16
2023-04-22T11:13:19.787Z,99261.95
2023-04-22T11:15:54.485Z,99246.62
2023-04-22T11:18:28.235Z,99249.72
2023-04-22T11:21:08.883Z,99239.09
2023-04-22T11:23:42.806Z,99242.84
2023-04-22T11:26:15.642Z,99235.52
2023-04-22T11:28:50.895Z,99248.42
2023-04-22T11:31:23.108Z,99259.63
2023-04-22T11:33:57.204Z,99247.30
2023-04-22T11:36:29.608Z,99243.91
2023-04-22T11:39:02.450Z,99241.38
2023-04-22T11:41:35.436Z,99241.23
2023-04-22T11:44:08.166Z,99240.73
2023-04-22T11:46:40.739Z,99253.67
2023-04-22T11:49:14.975Z,99250.09
2023-04-22T11:51:59.475Z,99251.16
2023-04-22T11:54:37.547Z,99242.80
2023-04-22T11:57:13.304Z,99241.06
2023-04-22T11:59:45.790Z,99235.84
2023-04-22T12:02:19.291Z,99234.67
2023-04-22T12:04:52.015Z,99231.50
2023-04-22T12:07:24.562Z,99227.77
2023-04-22T12:09:57.709Z,99229.67
2023-04-22T12:12:30.750Z,99230.70
2023-04-22T12:15:13.528Z,99221.85
2023-04-22T12:17:46.968Z,99211.77
2023-04-22T12:20:22.308Z,99211.57
2023-04-22T12:22:54.885Z,99205.70
2023-04-22T12:25:28.274Z,99203.52
2023-04-22T12:28:01.304Z,99208.14
2023-04-22T12:30:35.396Z,99198.81
2023-04-22T12:33:07.628Z,99199.93
2023-04-22T12:35:40.242Z,99202.02
2023-04-22T12:38:13.870Z,99201.93
2023-04-22T12:40:46.901Z,99207.38
2023-04-22T12:43:20.186Z,99200.69
2023-04-22T12:45:54.932Z,99199.23
2023-04-22T12:48:27.514Z,99193.22
2023-04-22T12:51:00.694Z,99191.78
2023-04-22T12:53:33.328Z,99185.25
2023-04-22T12:56:05.839Z,99188.88
2023-04-22T12:58:39.045Z,99197.52
2023-04-22T13:01:11.587Z,99183.38
2023-04-22T13:03:44.406Z,99167.19
2023-04-22T13:06:17.441Z,99192.43
2023-04-22T13:08:51.822Z,99177.41
2023-04-22T13:11:24.975Z,99166.86
2023-04-22T13:13:58.832Z,99191.02
2023-04-22T13:16:31.758Z,99177.69
2023-04-22T13:19:04.728Z,99188.95
2023-04-22T13:21:37.294Z,99194.31
2023-04-22T13:24:09.950Z,99196.69
2023-04-22T13:26:42.533Z,99203.97
2023-04-22T13:29:14.853Z,99209.30
2023-04-22T13:31:47.122Z,99211.55
2023-04-22T13:34:19.784Z,99208.78
2023-04-22T13:36:52.348Z,99212.27
2023-04-22T13:39:25.747Z,99217.59
2023-04-22T13:41:58.115Z,99217.80
2023-04-22T13:44:30.508Z,99208.59
2023-04-22T13:47:02.981Z,99206.09
2023-04-22T13:49:35.102Z,99198.47
2023-04-22T13:52:07.142Z,99191.20
2023-04-22T13:54:39.215Z,99182.17
2023-04-22T13:57:12.205Z,99184.78
2023-04-22T13:59:44.531Z,99191.59
2023-04-22T14:02:17.779Z,99183.45
2023-04-22T14:04:50.043Z,99163.22
2023-04-22T14:07:22.777Z,99163.22
2023-04-22T14:09:55.742Z,99176.80
2023-04-22T14:12:28.339Z,99187.27
2023-04-22T14:15:00.789Z,99189.68
2023-04-22T14:17:35.166Z,99183.10
2023-04-22T14:20:08.431Z,99191.06
2023-04-22T14:22:40.670Z,99197.38
2023-04-22T14:25:13.530Z,99210.16
2023-04-22T14:27:46.638Z,99216.13
2023-04-22T14:30:20.728Z,99215.78
2023-04-22T14:32:53.225Z,99229.06
2023-04-22T14:35:26.189Z,99230.57
2023-04-22T14:37:58.680Z,99221.94
2023-04-22T14:40:31.146Z,99224.22
2023-04-22T14:43:05.781Z,99216.28
2023-04-22T14:45:38.623Z,99211.77
2023-04-22T14:48:11.447Z,99212.02
2023-04-22T14:50:44.329Z,99220.40
2023-04-22T14:53:16.458Z,99216.16
2023-04-22T14:55:48.729Z,99223.03
2023-04-22T14:58:20.822Z,99231.95
2023-04-22T15:00:53.249Z,99241.10
2023-04-22T15:03:25.576Z,99228.44
2023-04-22T15:05:58.152Z,99243.39
2023-04-22T15:08:30.519Z,99249.36
2023-04-22T15:11:02.850Z,99249.91
2023-04-22T15:13:36.392Z,99252.41
2023-04-22T15:16:09.148Z,99254.86
2023-04-22T15:18:42.758Z,99251.21
2023-04-22T15:21:14.993Z,99260.22
2023-04-22T15:23:47.771Z,99261.03
2023-04-22T15:26:20.049Z,99258.90
2023-04-22T15:28:52.321Z,99263.14
2023-04-22T15:31:24.950Z,99261.94
2023-04-22T15:33:57.078Z,99257.59
2023-04-22T15:36:30.203Z,99270.19
2023-04-22T15:39:03.233Z,99263.48
2023-04-22T15:41:35.472Z,99259.02
2023-04-22T15:44:08.773Z,99271.05
2023-04-22T15:46:41.752Z,99275.27
2023-04-22T15:49:15.095Z,99271.34
2023-04-22T15:51:47.294Z,99265.18
2023-04-22T15:54:19.595Z,99266.24
2023-04-22T15:56:51.775Z,99272.21
2023-04-22T15:59:24.258Z,99272.48
2023-04-22T16:01:57.107Z,99268.38
2023-04-22T16:04:29.701Z,99274.77
2023-04-22T16:07:01.978Z,99262.44
2023-04-22T16:09:34.377Z,99248.60
2023-04-22T16:12:06.872Z,99248.60
2023-04-22T16:14:38.963Z,99268.73
2023-04-22T16:17:11.049Z,99263.72
2023-04-22T16:19:43.609Z,99267.16
2023-04-22T16:22:15.683Z,99268.73
2023-04-22T16:24:47.636Z,99268.73
2023-04-22T16:27:19.824Z,99268.38
2023-04-22T16:29:52.649Z,99265.72
2023-04-22T16:32:25.429Z,99265.72
2023-04-22T16:34:57.802Z,99276.23
2023-04-22T16:37:31.102Z,99251.77
2023-04-22T16:40:04.981Z,99283.58
2023-04-22T16:42:37.977Z,99283.58
2023-04-22T16:45:10.791Z,99280.80
2023-04-22T16:47:43.082Z,99284.19
2023-04-22T16:50:15.695Z,99284.78
2023-04-22T16:52:48.076Z,99289.02
2023-04-22T16:55:21.297Z,99292.25
2023-04-22T16:57:53.608Z,99292.52
2023-04-22T17:00:26.212Z,99288.89
2023-04-22T17:02:58.799Z,99294.91
2023-04-22T17:05:31.431Z,99298.05
2023-04-22T17:08:03.662Z,99294.89
2023-04-22T17:10:37.370Z,99303.31
2023-04-22T17:13:09.374Z,99307.63
2023-04-22T17:15:41.983Z,99309.78
2023-04-22T17:18:15.102Z,99303.77
2023-04-22T17:20:49.190Z,99305.70
2023-04-22T17:23:21.444Z,99312.88
2023-04-22T17:25:53.905Z,99311.44
2023-04-22T17:28:26.534Z,99317.91
2023-04-22T17:30:58.760Z,99316.23
2023-04-22T17:33:31.459Z,99320.81
2023-04-22T17:36:04.250Z,99323.91
2023-04-22T17:38:36.661Z,99327.02
2023-04-22T17:41:09.255Z,99328.21
2023-04-22T17:43:41.786Z,99327.36
2023-04-22T17:46:14.063Z,99338.47
2023-04-22T17:48:46.996Z,99339.88
2023-04-22T17:51:19.520Z,99333.36
2023-04-22T17:53:53.019Z,99340.30
2023-04-22T17:56:26.790Z,99345.89
2023-04-22T17:59:00.127Z,99341.30
2023-04-22T18:01:32.852Z,99341.77
2023-04-22T18:04:06.030Z,99352.03
2023-04-22T18:06:39.977Z,99348.75
2023-04-22T18:09:12.386Z,99349.21
2023-04-22T18:11:44.722Z,99360.94
2023-04-22T18:14:17.003Z,99355.05
2023-04-22T18:16:49.172Z,99356.33
2023-04-22T18:19:21.359Z,99354.11
2023-04-22T18:22:00.115Z,99359.49
2023-04-22T18:24:27.554Z,99352.64
2023-04-22T18:26:59.258Z,99367.84
2023-04-22T18:29:33.520Z,99361.30
2023-04-22T18:32:06.040Z,99362.02
2023-04-22T18:34:38.792Z,99367.40
2023-04-22T18:37:11.213Z,99364.16
2023-04-22T18:39:43.773Z,99358.88
2023-04-22T18:42:16.083Z,99365.32
2023-04-22T18:44:48.502Z,99365.53
2023-04-22T18:47:20.976Z,99360.59
2023-04-22T18:49:53.119Z,99366.19
2023-04-22T18:52:25.720Z,99365.47
2023-04-22T18:54:57.775Z,99363.03
2023-04-22T18:57:30.342Z,99360.60
2023-04-22T19:00:03.157Z,99373.06
2023-04-22T19:02:39.771Z,99366.11
2023-04-22T19:05:11.381Z,99375.05
2023-04-22T19:07:45.182Z,99367.34
2023-04-22T19:10:17.838Z,99365.64
2023-04-22T19:12:50.211Z,99374.70
2023-04-22T19:15:22.216Z,99374.84
2023-04-22T19:17:54.222Z,99377.78
2023-04-22T19:20:26.495Z,99377.02
2023-04-22T19:22:58.797Z,99379.89
2023-04-22T19:25:31.798Z,99380.00
2023-04-22T19:28:03.894Z,99382.73
2023-04-22T19:30:36.194Z,99377.90
2023-04-22T19:33:08.368Z,99384.19
2023-04-22T19:35:40.347Z,99390.84
2023-04-22T19:38:14.101Z,99385.25
2023-04-22T19:40:46.377Z,99383.34
2023-04-22T19:43:19.458Z,99383.34
2023-04-22T19:45:51.862Z,99393.88
2023-04-22T19:48:24.807Z,99387.98
2023-04-22T19:50:57.883Z,99395.89
2023-04-22T19:53:31.703Z,99394.11
2023-04-22T19:56:04.747Z,99397.89
2023-04-22T19:58:37.223Z,99398.81
2023-04-22T20:01:09.691Z,99398.09
2023-04-22T20:03:42.425Z,99399.77
2023-04-22T20:06:15.597Z,99404.08
2023-04-22T20:08:48.144Z,99401.68
2023-04-22T20:11:21.701Z,99399.05
2023-04-22T20:13:54.514Z,99402.59
2023-04-22T20:16:28.167Z,99401.97
2023-04-22T20:19:00.401Z,99407.34
2023-04-22T20:21:33.137Z,99404.80
2023-04-22T20:24:06.346Z,99408.59
2023-04-22T20:26:39.099Z,99412.27
2023-04-22T20:29:11.841Z,99408.05
2023-04-22T20:31:44.036Z,99413.32
2023-04-22T20:34:16.618Z,99418.78
2023-04-22T20:36:49.739Z,99410.45
2023-04-22T20:39:23.544Z,99419.30
2023-04-22T20:41:59.525Z,99417.70
2023-04-22T20:44:31.910Z,99408.95
2023-04-22T20:47:04.161Z,99421.58
2023-04-22T20:49:38.205Z,99422.00
2023-04-22T20:52:11.556Z,99419.55
2023-04-22T20:54:44.415Z,99417.97
2023-04-22T20:57:16.771Z,99425.10
2023-04-22T20:59:49.439Z,99427.29
2023-04-22T21:02:22.787Z,99424.84
2023-04-22T21:04:55.482Z,99428.61
2023-04-22T21:07:30.858Z,99419.99
2023-04-22T21:10:03.275Z,99422.91
2023-04-22T21:12:36.011Z,99424.80
2023-04-22T21:15:09.234Z,99425.84
2023-04-22T21:17:44.809Z,99437.41
2023-04-22T21:20:21.026Z,99428.03
2023-04-22T21:22:55.197Z,99429.80
2023-04-22T21:25:28.801Z,99428.21
2023-04-22T21:28:01.379Z,99426.53
2023-04-22T21:30:33.605Z,99430.17
2023-04-22T21:33:05.852Z,99434.75
2023-04-22T21:35:39.448Z,99435.61
2023-04-22T21:38:11.724Z,99437.48
2023-04-22T21:40:44.014Z,99438.33
2023-04-22T21:43:16.028Z,99435.06
2023-04-22T21:45:48.426Z,99437.87
2023-04-22T21:48:21.218Z,99438.05
2023-04-22T21:50:53.558Z,99443.50
2023-04-22T21:53:25.814Z,99449.61
2023-04-22T21:55:57.908Z,99442.00
2023-04-22T21:58:29.954Z,99447.93
2023-04-22T22:01:02.091Z,99445.95
2023-04-22T22:03:34.991Z,99444.81
2023-04-22T22:06:07.659Z,99443.98
2023-04-22T22:08:40.840Z,99447.75
2023-04-22T22:11:27.513Z,99449.52
2023-04-22T22:13:48.430Z,99447.16
2023-04-22T22:16:20.663Z,99451.23
2023-04-22T22:18:52.825Z,99463.13
2023-04-22T22:21:26.137Z,99456.02
2023-04-22T22:23:58.169Z,99467.56
2023-04-22T22:26:30.730Z,99467.44
2023-04-22T22:29:03.402Z,99461.54
2023-04-22T22:31:36.055Z,99471.31
2023-04-22T22:34:08.175Z,99475.63
2023-04-22T22:36:41.397Z,99470.75
2023-04-22T22:39:15.449Z,99469.23
2023-04-22T22:41:48.357Z,99466.61
2023-04-22T22:44:20.795Z,99468.61
2023-04-22T22:46:53.235Z,99471.97
2023-04-22T22:49:25.504Z,99474.97
2023-04-22T22:51:58.149Z,99477.31
2023-04-22T22:54:30.374Z,99472.97
2023-04-22T22:57:03.237Z,99472.06
2023-04-22T22:59:36.510Z,99473.92
2023-04-22T23:02:08.835Z,99470.56
2023-04-22T23:04:42.290Z,99475.73
2023-04-22T23:07:16.182Z,99472.15
2023-04-22T23:09:48.201Z,99479.18
2023-04-22T23:12:20.410Z,99483.50
2023-04-22T23:14:52.538Z,99483.50
2023-04-22T23:17:25.089Z,99483.41
2023-04-22T23:19:57.361Z,99487.07
2023-04-22T23:22:31.271Z,99488.97
2023-04-22T23:25:04.358Z,99485.58
2023-04-22T23:27:36.783Z,99487.56
2023-04-22T23:30:09.767Z,99491.42
2023-04-22T23:32:43.902Z,99487.56
2023-04-22T23:35:17.036Z,99485.47
2023-04-22T23:37:50.836Z,99500.59
2023-04-22T23:40:23.202Z,99495.34
2023-04-22T23:42:55.517Z,99492.71
2023-04-22T23:45:27.661Z,99495.98
2023-04-22T23:48:00.107Z,99494.12
2023-04-22T23:50:32.227Z,99502.02
2023-04-22T23:53:04.576Z,99500.33
2023-04-22T23:55:37.411Z,99503.78
2023-04-22T23:58:09.479Z,99502.38
